KHIB

Range Regional Airport

Hibbing, Minnesota, USA
KHIB 151139Z 1512/1612 VRB03KT 3SM BR FEW250 TEMPO 1512/1513 1/2SM FG BKN003 FM151400 31003KT P6SM SCT250 FM160800 00000KT 4SM BR FEW250 TEMPO 1609/1612 2SM BR SCT005
Issued Valid From Valid To
Aug-15 @ 11:39 UTC
(an hour ago)
Aug-15 @ 12:00 UTC
(42 minutes ago)
Aug-16 @ 12:00 UTC
(in 23 hours)
Aug-15 @ 12:00 to Aug-15 @ 14:00
KHIB 151139Z 1512/1612 VRB03KT 3SM BR FEW250
Wind Visibility Clouds Conditions
Variable at 3 knots 3 miles
  • Few at 25,000' AGL
  • Mist
Temporary Aug-15 @ 12:00 to Aug-15 @ 13:00
TEMPO 1512/1513 1/2SM FG BKN003
Visibility Clouds Conditions
1/2 miles
  • Broken at 300' AGL
  • Fog
From Aug-15 @ 14:00 to Aug-16 @ 08:00
FM151400 31003KT P6SM SCT250
Wind Visibility Clouds
310° at 3 knots Greater than 6 miles
  • Scattered at 25,000' AGL
From Aug-16 @ 08:00 to Aug-16 @ 12:00
FM160800 00000KT 4SM BR FEW250
Visibility Clouds Conditions
4 miles
  • Few at 25,000' AGL
  • Mist
Temporary Aug-16 @ 09:00 to Aug-16 @ 12:00
TEMPO 1609/1612 2SM BR SCT005
Visibility Clouds Conditions
2 miles
  • Scattered at 500' AGL
  • Mist
KHIB 151139Z 1512/1612 VRB03KT 3SM BR FEW250 TEMPO 1512/1513 1/2SM FG BKN003 FM151400 31003KT P6SM SCT250 FM160800 00000KT 4SM BR FEW250 TEMPO 1609/1612 2SM BR SCT005
Issued Aug-15 @ 11:39 UTC
(an hour ago)
Valid From Aug-15 @ 12:00 UTC
(42 minutes ago)
Valid To Aug-16 @ 12:00 UTC
(in 23 hours)
Aug-15 @ 12:00 - Aug-15 @ 14:00
Wind Visibility
Variable at 3 knots 3 miles
Clouds
  • Few at 25,000' AGL
Conditions
  • Mist
Temporary Aug-15 @ 12:00 - Aug-15 @ 13:00
Clouds
  • Broken at 300' AGL
Conditions
  • Fog
From Aug-15 @ 14:00 - Aug-16 @ 08:00
Wind Visibility
310° at 3 knots Greater than 6 miles
Clouds
  • Scattered at 25,000' AGL
From Aug-16 @ 08:00 - Aug-16 @ 12:00
Clouds
  • Few at 25,000' AGL
Conditions
  • Mist
Temporary Aug-16 @ 09:00 - Aug-16 @ 12:00
Clouds
  • Scattered at 500' AGL
Conditions
  • Mist